createdAt,value
2022-09-28T00:01:18.285Z,92.03
2022-09-28T00:03:47.511Z,91.98
2022-09-28T00:06:18.803Z,92.16
2022-09-28T00:08:46.996Z,92.17
2022-09-28T00:11:19.025Z,92.01
2022-09-28T00:13:51.852Z,92.08
2022-09-28T00:16:23.052Z,92.00
2022-09-28T00:18:51.574Z,92.01
2022-09-28T00:21:22.504Z,92.14
2022-09-28T00:24:14.383Z,92.16
2022-09-28T00:26:51.338Z,91.98
2022-09-28T00:29:34.434Z,92.15
2022-09-28T00:32:11.861Z,92.24
2022-09-28T00:34:46.109Z,92.11
2022-09-28T00:37:15.177Z,92.12
2022-09-28T00:39:43.611Z,92.20
2022-09-28T00:42:16.292Z,92.25
2022-09-28T00:44:57.466Z,92.28
2022-09-28T00:47:40.486Z,92.36
2022-09-28T00:50:21.670Z,92.32
2022-09-28T00:53:05.420Z,92.50
2022-09-28T00:55:54.209Z,92.39
2022-09-28T00:58:27.667Z,92.39
2022-09-28T01:00:58.280Z,92.54
2022-09-28T01:03:28.307Z,92.67
2022-09-28T01:05:59.262Z,92.80
2022-09-28T01:08:28.549Z,92.81
2022-09-28T01:10:59.494Z,92.84
2022-09-28T01:13:28.365Z,92.85
2022-09-28T01:16:22.497Z,92.87
2022-09-28T01:18:59.117Z,92.91
2022-09-28T01:21:27.496Z,92.90
2022-09-28T01:24:13.793Z,92.97
2022-09-28T01:26:44.833Z,92.79
2022-09-28T01:29:33.630Z,92.70
2022-09-28T01:32:27.565Z,92.83
2022-09-28T01:35:01.834Z,92.94
2022-09-28T01:37:46.850Z,93.00
2022-09-28T01:40:16.006Z,93.03
2022-09-28T01:42:48.209Z,93.04
2022-09-28T01:45:31.525Z,93.09
2022-09-28T01:48:05.140Z,93.10
2022-09-28T01:50:38.465Z,93.13
2022-09-28T01:53:15.697Z,93.15
2022-09-28T01:55:47.890Z,93.16
2022-09-28T01:58:23.633Z,93.11
2022-09-28T02:00:58.324Z,93.14
2022-09-28T02:03:35.254Z,93.18
2022-09-28T02:06:15.958Z,93.21
2022-09-28T02:08:54.318Z,93.24
2022-09-28T02:11:23.055Z,93.22
2022-09-28T02:14:04.091Z,93.24
2022-09-28T02:16:43.585Z,93.26
2022-09-28T02:19:20.698Z,93.26
2022-09-28T02:21:54.501Z,93.29
2022-09-28T02:24:24.633Z,93.31
2022-09-28T02:26:56.581Z,93.29
2022-09-28T02:29:25.133Z,93.33
2022-09-28T02:31:52.946Z,93.33
2022-09-28T02:34:20.896Z,93.36
2022-09-28T02:36:48.863Z,93.35
2022-09-28T02:39:19.194Z,93.47
2022-09-28T02:42:10.678Z,93.44
2022-09-28T02:45:09.395Z,93.31
2022-09-28T02:47:46.375Z,93.15
2022-09-28T02:50:24.336Z,93.27
2022-09-28T02:53:19.583Z,93.40
2022-09-28T02:55:56.423Z,93.21
2022-09-28T02:58:49.313Z,93.13
2022-09-28T03:01:34.837Z,93.06
2022-09-28T03:04:21.412Z,93.04
2022-09-28T03:06:54.960Z,93.03
2022-09-28T03:09:29.823Z,92.91
2022-09-28T03:12:01.594Z,92.79
2022-09-28T03:14:29.353Z,92.75
2022-09-28T03:16:57.066Z,92.74
2022-09-28T03:19:32.139Z,92.73
2022-09-28T03:22:01.132Z,92.71
2022-09-28T03:24:28.996Z,92.73
2022-09-28T03:26:56.758Z,92.74
2022-09-28T03:29:24.571Z,92.73
2022-09-28T03:31:52.612Z,92.76
2022-09-28T03:34:20.677Z,92.68
2022-09-28T03:36:48.734Z,92.71
2022-09-28T03:39:16.711Z,92.86
2022-09-28T03:41:44.771Z,92.88
2022-09-28T03:44:12.984Z,92.89
2022-09-28T03:46:40.710Z,92.92
2022-09-28T03:49:10.341Z,92.84
2022-09-28T03:51:38.284Z,92.97
2022-09-28T03:54:06.215Z,92.94
2022-09-28T03:56:34.114Z,92.93
2022-09-28T03:59:04.337Z,92.93
2022-09-28T04:01:32.480Z,92.87
2022-09-28T04:04:00.589Z,92.94
2022-09-28T04:06:28.344Z,92.96
2022-09-28T04:08:56.123Z,92.89
2022-09-28T04:11:24.388Z,92.82
2022-09-28T04:13:52.249Z,92.77
2022-09-28T04:16:20.051Z,92.77
2022-09-28T04:18:48.708Z,92.70
2022-09-28T04:21:19.776Z,92.66
2022-09-28T04:23:49.031Z,92.73
2022-09-28T04:26:22.942Z,92.74
2022-09-28T04:29:09.442Z,92.71
2022-09-28T04:31:44.482Z,92.73
2022-09-28T04:34:15.112Z,92.67
2022-09-28T04:36:46.733Z,92.70
2022-09-28T04:39:17.089Z,92.67
2022-09-28T04:41:47.923Z,92.73
2022-09-28T04:44:16.000Z,92.76
2022-09-28T04:46:43.860Z,92.70
2022-09-28T04:49:12.064Z,92.73
2022-09-28T04:51:39.792Z,92.80
2022-09-28T04:54:07.554Z,92.65
2022-09-28T04:56:35.525Z,92.53
2022-09-28T04:59:03.311Z,92.44
2022-09-28T05:01:31.549Z,92.38
2022-09-28T05:03:59.632Z,92.38
2022-09-28T05:06:30.702Z,92.36
2022-09-28T05:08:58.666Z,92.37
2022-09-28T05:11:26.916Z,92.39
2022-09-28T05:13:55.292Z,92.43
2022-09-28T05:16:25.250Z,92.44
2022-09-28T05:18:57.083Z,92.37
2022-09-28T05:21:26.570Z,92.45
2022-09-28T05:23:56.283Z,92.46
2022-09-28T05:26:24.555Z,92.60
2022-09-28T05:28:52.418Z,92.55
2022-09-28T05:31:20.251Z,92.42
2022-09-28T05:33:48.151Z,92.63
2022-09-28T05:36:15.933Z,92.49
2022-09-28T05:38:43.788Z,92.35
2022-09-28T05:41:11.883Z,92.27
2022-09-28T05:43:39.817Z,92.25
2022-09-28T05:46:08.362Z,92.23
2022-09-28T05:48:36.648Z,92.27
2022-09-28T05:51:04.775Z,92.19
2022-09-28T05:53:32.714Z,91.85
2022-09-28T05:56:00.785Z,91.60
2022-09-28T05:58:28.855Z,91.38
2022-09-28T06:00:57.603Z,91.32
2022-09-28T06:03:27.335Z,91.36
2022-09-28T06:05:55.629Z,91.30
2022-09-28T06:08:23.390Z,91.36
2022-09-28T06:10:51.152Z,91.38
2022-09-28T06:13:18.930Z,91.39
2022-09-28T06:15:46.782Z,91.35
2022-09-28T06:18:15.175Z,91.22
2022-09-28T06:20:43.537Z,91.22
2022-09-28T06:23:13.244Z,91.12
2022-09-28T06:25:41.325Z,91.04
2022-09-28T06:28:14.452Z,91.05
2022-09-28T06:30:44.060Z,91.16
2022-09-28T06:33:14.128Z,91.20
2022-09-28T06:35:42.591Z,91.29
2022-09-28T06:38:11.305Z,91.30
2022-09-28T06:40:39.635Z,91.06
2022-09-28T06:43:11.742Z,91.08
2022-09-28T06:45:39.598Z,90.97
2022-09-28T06:48:08.388Z,91.00
2022-09-28T06:50:42.947Z,91.09
2022-09-28T06:53:13.854Z,91.05
2022-09-28T06:55:43.764Z,90.93
2022-09-28T06:58:14.189Z,90.79
2022-09-28T07:00:42.565Z,90.68
2022-09-28T07:03:16.166Z,90.52
2022-09-28T07:05:46.692Z,90.46
2022-09-28T07:08:16.077Z,90.45
2022-09-28T07:10:45.750Z,90.51
2022-09-28T07:13:36.321Z,90.55
2022-09-28T07:16:02.942Z,90.59
2022-09-28T07:18:30.763Z,90.54
2022-09-28T07:20:59.588Z,90.31
2022-09-28T07:23:28.785Z,89.71
2022-09-28T07:25:58.347Z,89.59
2022-09-28T07:28:26.364Z,89.65
2022-09-28T07:30:57.218Z,89.64
2022-09-28T07:33:32.765Z,89.57
2022-09-28T07:36:06.775Z,89.31
2022-09-28T07:38:34.613Z,89.31
2022-09-28T07:41:11.591Z,89.27
2022-09-28T07:43:40.111Z,89.15
2022-09-28T07:46:12.362Z,89.07
2022-09-28T07:48:42.914Z,88.80
2022-09-28T07:51:10.735Z,88.62
2022-09-28T07:53:38.729Z,88.47
2022-09-28T07:56:09.064Z,88.30
2022-09-28T07:58:38.840Z,88.24
2022-09-28T08:01:10.532Z,88.17
2022-09-28T08:03:39.552Z,88.34
2022-09-28T08:06:11.347Z,88.20
2022-09-28T08:08:44.024Z,87.77
2022-09-28T08:11:13.425Z,87.44
2022-09-28T08:13:41.692Z,87.35
2022-09-28T08:16:09.771Z,86.59
2022-09-28T08:18:37.940Z,86.27
2022-09-28T08:21:25.263Z,85.89
2022-09-28T08:23:53.332Z,85.99
2022-09-28T08:26:21.915Z,85.57
2022-09-28T08:28:50.349Z,85.18
2022-09-28T08:31:18.275Z,84.93
2022-09-28T08:33:46.229Z,85.47
2022-09-28T08:36:14.300Z,85.21
2022-09-28T08:38:42.678Z,84.43
2022-09-28T08:41:47.977Z,84.91
2022-09-28T08:44:24.485Z,84.20
2022-09-28T08:47:06.777Z,84.31
2022-09-28T08:49:47.567Z,84.17
2022-09-28T08:52:25.192Z,83.60
2022-09-28T08:55:24.866Z,82.23
2022-09-28T08:58:05.222Z,82.84
2022-09-28T09:00:39.949Z,81.70
2022-09-28T09:03:13.657Z,82.05
2022-09-28T09:05:56.164Z,81.39
2022-09-28T09:09:08.772Z,81.20
2022-09-28T09:11:50.341Z,80.59
2022-09-28T09:14:18.421Z,79.95
2022-09-28T09:17:08.314Z,78.64
2022-09-28T09:19:49.598Z,80.00
2022-09-28T09:22:27.701Z,78.94
2022-09-28T09:25:19.936Z,79.63
2022-09-28T09:27:56.507Z,79.39
2022-09-28T09:30:30.349Z,79.19
2022-09-28T09:33:31.351Z,78.46
2022-09-28T09:36:21.647Z,77.04
2022-09-28T09:39:05.655Z,76.71
2022-09-28T09:41:48.201Z,76.63
2022-09-28T09:44:40.640Z,75.79
2022-09-28T09:47:14.959Z,75.56
2022-09-28T09:50:11.495Z,74.21
2022-09-28T09:53:18.672Z,72.49
2022-09-28T09:55:50.542Z,73.44
2022-09-28T09:58:44.929Z,71.43
2022-09-28T10:01:16.204Z,72.91
2022-09-28T10:03:48.352Z,73.59
2022-09-28T10:06:20.403Z,73.76
2022-09-28T10:09:23.802Z,73.14
2022-09-28T10:11:52.215Z,71.98
2022-09-28T10:14:25.163Z,71.58
2022-09-28T10:16:55.906Z,71.08
2022-09-28T10:19:35.642Z,71.95
2022-09-28T10:22:05.656Z,73.77
2022-09-28T10:24:45.247Z,73.94
2022-09-28T10:27:19.160Z,74.18
2022-09-28T10:30:00.908Z,75.34
2022-09-28T10:32:46.339Z,74.21
2022-09-28T10:35:24.808Z,73.77
2022-09-28T10:38:13.133Z,73.58
2022-09-28T10:40:44.958Z,72.57
2022-09-28T10:43:22.689Z,71.83
2022-09-28T10:46:08.260Z,72.11
2022-09-28T10:48:56.558Z,72.76
2022-09-28T10:51:44.140Z,72.75
2022-09-28T10:54:20.182Z,72.56
2022-09-28T10:56:49.501Z,72.36
2022-09-28T10:59:29.446Z,72.71
2022-09-28T11:02:02.788Z,73.99
2022-09-28T11:04:38.796Z,74.97
2022-09-28T11:07:18.237Z,74.00
2022-09-28T11:09:50.092Z,75.90
2022-09-28T11:12:24.614Z,75.98
2022-09-28T11:15:06.405Z,76.00
2022-09-28T11:17:43.998Z,76.84
2022-09-28T11:20:28.116Z,76.77
2022-09-28T11:23:20.490Z,76.50
2022-09-28T11:26:01.970Z,76.12
2022-09-28T11:28:33.465Z,76.65
2022-09-28T11:31:02.757Z,76.28
2022-09-28T11:33:30.894Z,76.48
2022-09-28T11:36:14.659Z,76.64
2022-09-28T11:39:18.110Z,76.85
2022-09-28T11:42:08.012Z,76.91
2022-09-28T11:44:40.380Z,76.93
2022-09-28T11:47:47.262Z,77.10
2022-09-28T11:50:24.889Z,78.03
2022-09-28T11:52:52.617Z,77.35
2022-09-28T11:55:54.280Z,77.74
2022-09-28T11:58:31.652Z,77.45
2022-09-28T12:01:23.900Z,78.16
2022-09-28T12:04:02.976Z,78.88
2022-09-28T12:06:40.828Z,79.00
2022-09-28T12:09:20.988Z,79.12
2022-09-28T12:11:54.788Z,79.88
2022-09-28T12:14:41.390Z,80.27
2022-09-28T12:17:36.747Z,80.38
2022-09-28T12:20:25.865Z,80.12
2022-09-28T12:22:59.568Z,80.05
2022-09-28T12:25:33.557Z,80.02
2022-09-28T12:28:07.797Z,79.67
2022-09-28T12:30:40.894Z,79.27
2022-09-28T12:33:13.355Z,78.60
2022-09-28T12:36:13.685Z,78.36
2022-09-28T12:39:40.974Z,77.97
2022-09-28T12:42:06.385Z,77.48
2022-09-28T12:44:59.755Z,77.31
2022-09-28T12:47:48.764Z,77.06
2022-09-28T12:50:41.579Z,76.68
2022-09-28T12:53:26.076Z,74.79
2022-09-28T12:56:04.184Z,75.75
2022-09-28T12:58:49.353Z,76.02
2022-09-28T13:01:40.138Z,76.48
2022-09-28T13:04:46.012Z,76.93
2022-09-28T13:07:22.192Z,77.80
2022-09-28T13:10:02.238Z,78.53
2022-09-28T13:12:39.408Z,79.27
2022-09-28T13:15:15.571Z,80.14
2022-09-28T13:18:01.970Z,80.22
2022-09-28T13:20:43.555Z,79.82
2022-09-28T13:23:26.573Z,80.41
2022-09-28T13:26:19.734Z,80.72
2022-09-28T13:28:50.366Z,80.39
2022-09-28T13:31:31.806Z,79.61
2022-09-28T13:34:03.607Z,78.93
2022-09-28T13:36:31.369Z,78.77
2022-09-28T13:39:00.975Z,77.89
2022-09-28T13:41:40.548Z,78.36
2022-09-28T13:44:11.079Z,76.01
2022-09-28T13:47:00.720Z,74.41
2022-09-28T13:49:42.718Z,75.05
2022-09-28T13:52:44.377Z,72.34
2022-09-28T13:55:18.176Z,73.06
2022-09-28T13:57:54.956Z,74.44
2022-09-28T14:00:45.658Z,74.22
2022-09-28T14:03:26.016Z,74.23
2022-09-28T14:06:27.217Z,73.68
2022-09-28T14:09:13.046Z,72.67
2022-09-28T14:11:42.605Z,73.97
2022-09-28T14:14:14.267Z,74.09
2022-09-28T14:16:42.959Z,73.78
2022-09-28T14:19:24.491Z,74.07
2022-09-28T14:22:13.742Z,74.52
2022-09-28T14:25:06.698Z,74.40
2022-09-28T14:28:01.241Z,74.01
2022-09-28T14:30:38.423Z,74.12
2022-09-28T14:33:28.067Z,74.51
2022-09-28T14:36:02.781Z,74.60
2022-09-28T14:39:03.828Z,74.15
2022-09-28T14:41:43.354Z,74.41
2022-09-28T14:44:13.273Z,73.63
2022-09-28T14:46:45.725Z,73.64
2022-09-28T14:49:25.210Z,73.97
2022-09-28T14:51:52.942Z,73.52
2022-09-28T14:54:22.841Z,74.15
2022-09-28T14:56:53.522Z,72.90
2022-09-28T14:59:22.788Z,73.89
2022-09-28T15:01:51.777Z,74.27
2022-09-28T15:04:20.472Z,73.58
2022-09-28T15:06:50.887Z,74.49
2022-09-28T15:09:35.202Z,74.29
2022-09-28T15:12:07.819Z,73.66
2022-09-28T15:14:45.211Z,74.01
2022-09-28T15:17:19.318Z,74.58
2022-09-28T15:20:41.862Z,73.43
2022-09-28T15:23:27.290Z,75.48
2022-09-28T15:25:55.523Z,75.36
2022-09-28T15:28:24.715Z,76.18
2022-09-28T15:31:00.456Z,76.66
2022-09-28T15:33:51.370Z,77.62
2022-09-28T15:36:26.613Z,77.79
2022-09-28T15:39:00.419Z,78.39
2022-09-28T15:41:29.099Z,78.48
2022-09-28T15:44:32.496Z,78.72
2022-09-28T15:47:05.377Z,78.54
2022-09-28T15:49:46.287Z,79.23
2022-09-28T15:52:28.349Z,79.87
2022-09-28T15:54:57.750Z,80.37
2022-09-28T15:57:38.381Z,80.73
2022-09-28T16:00:22.090Z,80.89
2022-09-28T16:03:06.788Z,81.11
2022-09-28T16:05:58.443Z,81.52
2022-09-28T16:08:42.394Z,81.48
2022-09-28T16:11:35.664Z,81.33
2022-09-28T16:14:21.883Z,81.59
2022-09-28T16:16:51.870Z,81.51
2022-09-28T16:19:28.491Z,81.69
2022-09-28T16:22:00.000Z,81.89
2022-09-28T16:24:38.688Z,82.21
2022-09-28T16:27:28.777Z,82.51
2022-09-28T16:30:21.932Z,82.74
2022-09-28T16:33:01.545Z,82.73
2022-09-28T16:35:32.317Z,82.98
2022-09-28T16:38:16.661Z,83.22
2022-09-28T16:40:49.732Z,83.35
2022-09-28T16:43:24.953Z,83.43
2022-09-28T16:45:56.868Z,83.54
2022-09-28T16:48:30.409Z,83.64
2022-09-28T16:50:59.317Z,83.77
2022-09-28T16:53:46.248Z,83.94
2022-09-28T16:56:14.560Z,84.41
2022-09-28T16:58:42.644Z,84.49
2022-09-28T17:01:12.635Z,84.70
2022-09-28T17:03:47.068Z,84.54
2022-09-28T17:06:17.253Z,84.69
2022-09-28T17:08:45.684Z,84.71
2022-09-28T17:11:20.507Z,84.82
2022-09-28T17:13:52.627Z,84.82
2022-09-28T17:16:42.629Z,84.89
2022-09-28T17:19:23.998Z,85.29
2022-09-28T17:21:52.878Z,85.37
2022-09-28T17:24:21.042Z,85.48
2022-09-28T17:26:51.314Z,85.48
2022-09-28T17:29:19.767Z,85.45
2022-09-28T17:31:48.337Z,85.78
2022-09-28T17:34:16.755Z,85.68
2022-09-28T17:36:48.527Z,85.85
2022-09-28T17:39:21.618Z,85.67
2022-09-28T17:41:50.466Z,85.90
2022-09-28T17:44:21.155Z,86.23
2022-09-28T17:46:52.731Z,86.22
2022-09-28T17:49:23.498Z,86.52
2022-09-28T17:51:54.445Z,86.45
2022-09-28T17:54:26.837Z,86.16
2022-09-28T17:56:55.099Z,86.41
2022-09-28T17:59:23.790Z,86.74
2022-09-28T18:01:51.829Z,86.74
2022-09-28T18:04:47.301Z,86.97
2022-09-28T18:07:18.492Z,86.80
2022-09-28T18:10:05.599Z,86.87
2022-09-28T18:12:35.586Z,86.76
2022-09-28T18:15:03.475Z,86.97
2022-09-28T18:17:31.343Z,86.78
2022-09-28T18:19:59.108Z,86.81
2022-09-28T18:22:31.814Z,87.06
2022-09-28T18:25:09.947Z,86.87
2022-09-28T18:27:45.923Z,87.10
2022-09-28T18:30:18.195Z,87.16
2022-09-28T18:32:45.949Z,87.38
2022-09-28T18:35:13.652Z,87.64
2022-09-28T18:37:41.663Z,87.65
2022-09-28T18:40:13.030Z,87.82
2022-09-28T18:42:42.128Z,87.89
2022-09-28T18:45:11.348Z,88.06
2022-09-28T18:47:40.111Z,88.08
2022-09-28T18:50:08.823Z,88.17
2022-09-28T18:52:37.475Z,88.30
2022-09-28T18:55:07.662Z,88.51
2022-09-28T18:57:36.236Z,88.59
2022-09-28T19:00:06.840Z,88.69
2022-09-28T19:02:35.695Z,88.66
2022-09-28T19:05:05.820Z,88.91
2022-09-28T19:07:34.603Z,89.08
2022-09-28T19:10:02.473Z,89.18
2022-09-28T19:12:30.642Z,89.12
2022-09-28T19:14:59.842Z,89.31
2022-09-28T19:17:27.705Z,89.30
2022-09-28T19:19:55.508Z,89.33
2022-09-28T19:22:23.225Z,89.48
2022-09-28T19:24:51.096Z,89.67
2022-09-28T19:27:18.963Z,89.82
2022-09-28T19:29:46.825Z,89.95
2022-09-28T19:32:15.926Z,89.94
2022-09-28T19:34:43.684Z,90.09
2022-09-28T19:37:11.405Z,90.17
2022-09-28T19:39:39.161Z,90.19
2022-09-28T19:42:07.188Z,90.16
2022-09-28T19:44:35.966Z,90.03
2022-09-28T19:47:07.071Z,90.03
2022-09-28T19:49:38.665Z,90.10
2022-09-28T19:52:16.393Z,90.22
2022-09-28T19:54:57.086Z,90.28
2022-09-28T19:57:27.942Z,90.32
2022-09-28T20:00:01.705Z,90.44
2022-09-28T20:02:30.592Z,90.39
2022-09-28T20:04:58.520Z,90.30
2022-09-28T20:07:26.280Z,90.32
2022-09-28T20:09:54.145Z,90.40
2022-09-28T20:12:22.546Z,90.45
2022-09-28T20:14:50.390Z,90.41
2022-09-28T20:17:19.484Z,90.45
2022-09-28T20:19:48.167Z,90.50
2022-09-28T20:22:17.164Z,90.44
2022-09-28T20:24:44.931Z,90.57
2022-09-28T20:27:12.792Z,90.50
2022-09-28T20:29:40.591Z,90.63
2022-09-28T20:32:08.979Z,90.77
2022-09-28T20:34:36.795Z,90.83
2022-09-28T20:37:04.559Z,90.84
2022-09-28T20:39:33.257Z,91.06
2022-09-28T20:42:01.108Z,90.97
2022-09-28T20:44:28.974Z,91.20
2022-09-28T20:46:56.888Z,91.04
2022-09-28T20:49:24.808Z,91.06
2022-09-28T20:51:52.982Z,91.26
2022-09-28T20:54:21.918Z,91.21
2022-09-28T20:56:50.006Z,91.20
2022-09-28T20:59:18.221Z,91.23
2022-09-28T21:01:46.012Z,91.22
2022-09-28T21:04:13.948Z,91.25
2022-09-28T21:06:42.521Z,91.18
2022-09-28T21:09:11.469Z,91.26
2022-09-28T21:11:39.557Z,91.25
2022-09-28T21:14:09.689Z,91.22
2022-09-28T21:16:37.998Z,91.21
2022-09-28T21:19:05.826Z,91.20
2022-09-28T21:21:33.580Z,91.23
2022-09-28T21:24:02.245Z,91.24
2022-09-28T21:26:31.156Z,91.24
2022-09-28T21:29:00.092Z,91.31
2022-09-28T21:31:31.671Z,91.21
2022-09-28T21:33:59.763Z,91.21
2022-09-28T21:36:27.507Z,91.22
2022-09-28T21:38:55.624Z,91.17
2022-09-28T21:41:24.936Z,91.18
2022-09-28T21:43:52.768Z,91.31
2022-09-28T21:46:20.729Z,91.19
2022-09-28T21:48:53.714Z,91.23
2022-09-28T21:51:22.042Z,91.33
2022-09-28T21:53:50.102Z,91.44
2022-09-28T21:56:17.972Z,91.21
2022-09-28T21:58:46.077Z,91.31
2022-09-28T22:01:19.832Z,91.18
2022-09-28T22:03:52.960Z,90.88
2022-09-28T22:06:23.155Z,90.88
2022-09-28T22:08:51.225Z,91.00
2022-09-28T22:11:22.264Z,91.28
2022-09-28T22:13:52.687Z,91.06
2022-09-28T22:16:23.976Z,91.09
2022-09-28T22:18:52.514Z,91.20
2022-09-28T22:21:23.042Z,91.26
2022-09-28T22:23:51.214Z,91.33
2022-09-28T22:26:25.411Z,91.37
2022-09-28T22:28:58.781Z,91.38
2022-09-28T22:31:29.449Z,91.31
2022-09-28T22:33:58.108Z,91.24
2022-09-28T22:36:26.316Z,91.23
2022-09-28T22:38:55.424Z,91.26
2022-09-28T22:41:24.602Z,91.22
2022-09-28T22:43:54.418Z,91.20
2022-09-28T22:46:25.390Z,91.18
2022-09-28T22:48:55.886Z,91.13
2022-09-28T22:51:25.324Z,91.06
2022-09-28T22:53:53.249Z,91.06
2022-09-28T22:56:21.013Z,90.98
2022-09-28T22:58:48.878Z,90.91
2022-09-28T23:01:23.120Z,90.81
2022-09-28T23:03:52.910Z,90.75
2022-09-28T23:06:23.377Z,90.74
2022-09-28T23:08:52.022Z,90.80
2022-09-28T23:11:20.285Z,90.83
2022-09-28T23:13:56.434Z,90.77
2022-09-28T23:16:25.858Z,90.75
2022-09-28T23:18:55.460Z,90.77
2022-09-28T23:21:26.068Z,90.80
2022-09-28T23:24:01.224Z,90.96
2022-09-28T23:26:32.579Z,90.96
2022-09-28T23:29:00.746Z,90.87
2022-09-28T23:31:33.138Z,90.87
2022-09-28T23:34:05.692Z,91.02
2022-09-28T23:36:34.263Z,90.95
2022-09-28T23:39:03.368Z,90.79
2022-09-28T23:41:31.437Z,90.83
2022-09-28T23:43:59.207Z,91.20
2022-09-28T23:46:27.333Z,91.22
2022-09-28T23:48:55.150Z,91.15
2022-09-28T23:51:22.922Z,91.00
2022-09-28T23:53:50.953Z,91.23
2022-09-28T23:56:18.713Z,91.25
2022-09-28T23:58:46.420Z,91.03
